Time;durP1;ratioP1;P1;durP2;ratioP2;P2;SDS_P1;SDS_P2;PMS_P1;PMS_P2;Temp;Humidity;BMP_temperature;BMP_pressure;BME280_temperature;BME280_humidity;BME280_pressure;Samples;Min_cycle;Max_cycle;Signal;HPM_P1;HPM_P2
2023/04/27 00:01:46;;;;;;;4.80;2.53;;;;;;;1.31;nan;101080.31;5032882;28;20043;-78
2023/04/27 00:04:16;;;;;;;3.40;2.27;;;;;;;1.33;nan;101086.41;5052721;28;20040;-80
2023/04/27 00:06:44;;;;;;;4.03;2.00;;;;;;;1.34;nan;101078.63;5015549;28;20044;-81
2023/04/27 00:09:11;;;;;;;4.67;2.43;;;;;;;1.29;nan;101082.00;5036136;28;20044;-81
2023/04/27 00:11:41;;;;;;;5.97;2.50;;;;;;;1.30;nan;101086.34;5052171;28;20750;-82
2023/04/27 00:14:08;;;;;;;3.63;2.27;;;;;;;1.33;nan;101083.81;5052640;28;20037;-80
2023/04/27 00:16:35;;;;;;;4.87;2.00;;;;;;;1.18;nan;101079.16;5052194;28;20044;-81
2023/04/27 00:19:02;;;;;;;3.67;1.87;;;;;;;1.12;nan;101082.47;5045656;28;20036;-80
2023/04/27 00:21:30;;;;;;;4.20;2.33;;;;;;;1.11;nan;101082.44;5057611;28;20047;-78
2023/04/27 00:23:57;;;;;;;4.20;2.20;;;;;;;1.01;nan;101081.34;5052753;28;20032;-81
2023/04/27 00:26:25;;;;;;;5.83;2.27;;;;;;;1.04;nan;101081.41;5053373;28;20040;-79
2023/04/27 00:28:52;;;;;;;3.67;2.20;;;;;;;1.03;nan;101086.56;5037823;28;20277;-81
2023/04/27 00:31:19;;;;;;;3.97;2.60;;;;;;;1.00;nan;101084.75;5037937;28;20040;-81
2023/04/27 00:33:47;;;;;;;3.23;2.17;;;;;;;0.99;nan;101075.19;5039244;28;20036;-79
2023/04/27 00:36:13;;;;;;;5.37;2.20;;;;;;;0.95;nan;101083.78;5043329;28;20037;-81
2023/04/27 00:38:40;;;;;;;4.17;2.60;;;;;;;0.94;nan;101089.81;5031460;28;20044;-79
2023/04/27 00:41:08;;;;;;;3.37;2.50;;;;;;;0.97;nan;101094.22;5044883;28;20036;-81
2023/04/27 00:43:42;;;;;;;7.50;2.03;;;;;;;0.96;nan;101085.53;5066014;28;20041;-80
2023/04/27 00:46:10;;;;;;;3.03;2.30;;;;;;;0.84;nan;101093.00;5048109;28;20028;-80
2023/04/27 00:48:38;;;;;;;4.10;2.03;;;;;;;0.80;nan;101093.78;5047184;28;20057;-82
2023/04/27 00:51:05;;;;;;;6.63;2.67;;;;;;;0.84;nan;101093.00;5052400;28;20038;-81
2023/04/27 00:53:32;;;;;;;5.47;1.90;;;;;;;0.67;nan;101092.56;5025215;28;20096;-79
2023/04/27 00:55:59;;;;;;;4.90;2.40;;;;;;;0.79;nan;101097.22;5030711;28;20045;-81
2023/04/27 00:58:26;;;;;;;3.67;2.27;;;;;;;1.03;nan;101104.78;5058252;28;20036;-80
2023/04/27 01:00:53;;;;;;;4.30;2.10;;;;;;;0.82;nan;101105.97;5060884;28;20032;-81
2023/04/27 01:03:21;;;;;;;5.03;2.83;;;;;;;1.00;nan;101107.28;5020186;28;20523;-80
2023/04/27 01:05:48;;;;;;;4.30;2.20;;;;;;;0.71;nan;101117.81;5043901;28;20040;-80
2023/04/27 01:08:15;;;;;;;3.43;2.27;;;;;;;0.62;nan;101108.91;5060776;28;20040;-80
2023/04/27 01:10:42;;;;;;;3.63;2.33;;;;;;;0.59;nan;101103.59;5060351;28;20035;-81
2023/04/27 01:13:09;;;;;;;4.43;2.30;;;;;;;0.52;nan;101113.84;5056362;28;20493;-79
2023/04/27 01:15:36;;;;;;;3.77;2.27;;;;;;;0.49;nan;101113.75;5027365;28;20041;-81
2023/04/27 01:18:03;;;;;;;4.50;2.00;;;;;;;0.46;nan;101108.47;5046595;28;20038;-81
2023/04/27 01:20:31;;;;;;;3.33;2.13;;;;;;;0.48;nan;101114.59;5027908;28;20501;-80
2023/04/27 01:22:58;;;;;;;3.47;2.30;;;;;;;0.42;nan;101117.06;5064492;28;20040;-80
2023/04/27 01:25:25;;;;;;;3.70;2.10;;;;;;;0.36;nan;101110.78;5073820;28;20043;-81
2023/04/27 01:27:53;;;;;;;3.87;2.30;;;;;;;0.30;nan;101115.81;5036579;28;20056;-80
2023/04/27 01:30:21;;;;;;;7.50;2.30;;;;;;;0.21;nan;101117.31;5055323;28;20032;-80
2023/04/27 01:32:48;;;;;;;4.40;2.07;;;;;;;0.22;nan;101110.38;5064110;28;20067;-81
2023/04/27 01:35:16;;;;;;;6.43;2.73;;;;;;;0.31;nan;101117.56;5055762;28;20382;-81
2023/04/27 01:37:43;;;;;;;4.00;2.30;;;;;;;0.19;nan;101118.09;5022961;28;20046;-80
2023/04/27 01:40:10;;;;;;;4.20;2.73;;;;;;;0.22;nan;101123.38;5061250;28;20056;-80
2023/04/27 01:42:38;;;;;;;4.97;2.73;;;;;;;0.19;nan;101124.19;5056125;28;20068;-81
2023/04/27 01:45:06;;;;;;;5.97;2.70;;;;;;;0.12;nan;101118.75;5054896;28;20051;-80
2023/04/27 01:47:32;;;;;;;4.23;2.30;;;;;;;0.26;nan;101127.84;5045443;28;20038;-81
2023/04/27 01:49:59;;;;;;;3.80;2.50;;;;;;;0.17;nan;101128.47;5034341;28;20066;-80
2023/04/27 01:52:27;;;;;;;5.87;2.47;;;;;;;0.14;nan;101133.56;5055021;28;20040;-81
2023/04/27 01:54:53;;;;;;;5.63;2.53;;;;;;;0.06;nan;101137.63;5063595;28;20416;-80
2023/04/27 01:57:20;;;;;;;5.23;2.57;;;;;;;-0.02;nan;101136.53;5053347;28;20044;-81
2023/04/27 01:59:47;;;;;;;7.80;2.93;;;;;;;-0.04;nan;101141.69;5050618;28;20040;-80
2023/04/27 02:02:14;;;;;;;5.83;2.90;;;;;;;-0.02;nan;101134.81;5040956;28;20036;-81
2023/04/27 02:04:42;;;;;;;6.43;2.70;;;;;;;-0.04;nan;101136.50;5051410;28;20609;-80
2023/04/27 02:07:09;;;;;;;3.57;2.07;;;;;;;0.00;nan;101132.28;5058074;28;20039;-81
2023/04/27 02:09:36;;;;;;;5.13;2.23;;;;;;;-0.04;nan;101133.00;5040721;28;20684;-80
2023/04/27 02:12:04;;;;;;;3.93;2.13;;;;;;;-0.08;nan;101134.66;5049608;28;20037;-80
2023/04/27 02:14:30;;;;;;;3.63;2.33;;;;;;;-0.11;nan;101137.13;5063601;28;20686;-80
2023/04/27 02:16:57;;;;;;;4.63;2.80;;;;;;;-0.06;nan;101142.47;5076160;28;20045;-78
2023/04/27 02:19:24;;;;;;;4.17;2.97;;;;;;;-0.16;nan;101138.72;5078898;28;20066;-80
2023/04/27 02:21:52;;;;;;;4.70;2.30;;;;;;;-0.17;nan;101138.66;5054510;28;20040;-79
2023/04/27 02:24:18;;;;;;;4.33;2.30;;;;;;;-0.18;nan;101136.91;5034638;28;20033;-79
2023/04/27 02:26:45;;;;;;;4.13;2.60;;;;;;;-0.21;nan;101142.00;5028124;28;20519;-78
2023/04/27 02:29:12;;;;;;;4.57;2.73;;;;;;;-0.24;nan;101144.53;5038213;28;20041;-79
2023/04/27 02:31:40;;;;;;;5.30;2.60;;;;;;;-0.30;nan;101151.28;5038467;28;20076;-79
2023/04/27 02:34:07;;;;;;;4.77;2.83;;;;;;;-0.27;nan;101150.47;5035309;28;20400;-79
2023/04/27 02:36:33;;;;;;;5.50;2.77;;;;;;;-0.28;nan;101148.72;5023039;28;20045;-80
2023/04/27 02:39:00;;;;;;;5.50;2.37;;;;;;;-0.33;nan;101152.91;5075212;28;20041;-79
2023/04/27 02:41:30;;;;;;;5.30;2.97;;;;;;;-0.36;nan;101150.19;5055173;28;20039;-79
2023/04/27 02:43:57;;;;;;;3.93;2.63;;;;;;;-0.39;nan;101147.50;5034182;28;20037;-80
2023/04/27 02:46:25;;;;;;;4.43;2.50;;;;;;;-0.39;nan;101147.50;5046082;28;20037;-78
2023/04/27 02:48:53;;;;;;;5.97;2.80;;;;;;;-0.40;nan;101151.81;5052472;28;20037;-79
2023/04/27 02:51:21;;;;;;;4.77;2.50;;;;;;;-0.42;nan;101152.59;5040001;28;20033;-78
2023/04/27 02:53:47;;;;;;;7.13;2.50;;;;;;;-0.43;nan;101146.53;5047377;28;20032;-80
2023/04/27 02:56:15;;;;;;;4.17;2.17;;;;;;;-0.46;nan;101149.03;5060760;28;20039;-78
2023/04/27 02:58:43;;;;;;;6.60;2.60;;;;;;;-0.52;nan;101153.13;5037680;28;20040;-79
2023/04/27 03:01:10;;;;;;;3.43;2.17;;;;;;;-0.52;nan;101155.72;5031108;28;20028;-78
2023/04/27 03:03:37;;;;;;;4.43;2.50;;;;;;;-0.61;nan;101162.38;5090596;28;20708;-79
2023/04/27 03:06:04;;;;;;;3.80;2.27;;;;;;;-0.63;nan;101163.19;5072191;28;20044;-78
2023/04/27 03:08:31;;;;;;;5.83;3.33;;;;;;;-0.65;nan;101159.66;5060759;28;20417;-79
2023/04/27 03:10:58;;;;;;;4.30;2.30;;;;;;;-0.62;nan;101165.81;5063817;28;20676;-78
2023/04/27 03:13:25;;;;;;;5.73;2.60;;;;;;;-0.63;nan;101165.78;5069498;28;20036;-79
2023/04/27 03:15:52;;;;;;;5.60;2.50;;;;;;;-0.59;nan;101168.53;5055439;28;20158;-80
2023/04/27 03:18:20;;;;;;;8.83;3.10;;;;;;;-0.69;nan;101161.25;5072295;28;20036;-80
2023/04/27 03:20:46;;;;;;;5.17;2.40;;;;;;;-0.72;nan;101171.53;5036577;28;20055;-78
2023/04/27 03:23:13;;;;;;;4.10;2.53;;;;;;;-0.75;nan;101171.44;5039850;28;20036;-78
2023/04/27 03:25:40;;;;;;;4.53;2.00;;;;;;;-0.74;nan;101177.53;5059821;28;20042;-80
2023/04/27 03:28:07;;;;;;;4.43;2.10;;;;;;;-0.72;nan;101178.44;5058778;28;20043;-79
2023/04/27 03:30:34;;;;;;;3.87;2.53;;;;;;;-0.78;nan;101178.22;5032816;28;20042;-80
2023/04/27 03:33:01;;;;;;;3.33;2.07;;;;;;;-0.69;nan;101174.22;5022112;28;20045;-79
2023/04/27 03:35:28;;;;;;;3.37;2.20;;;;;;;-0.78;nan;101186.00;5020443;28;20036;-79
2023/04/27 03:37:55;;;;;;;3.63;1.97;;;;;;;-0.85;nan;101190.09;5046019;28;20055;-79
2023/04/27 03:40:22;;;;;;;5.60;2.10;;;;;;;-0.91;nan;101195.97;5062832;28;20486;-79
2023/04/27 03:42:48;;;;;;;5.70;2.40;;;;;;;-0.85;nan;101192.69;5052353;28;20036;-81
2023/04/27 03:45:18;;;;;;;3.10;2.47;;;;;;;-0.84;nan;101191.91;5061644;28;20053;-79
2023/04/27 03:47:44;;;;;;;4.53;2.40;;;;;;;-0.80;nan;101193.75;5045987;28;20036;-80
2023/04/27 03:50:11;;;;;;;4.67;2.30;;;;;;;-0.81;nan;101201.47;5036718;28;20036;-79
2023/04/27 03:52:38;;;;;;;6.83;2.50;;;;;;;-0.86;nan;101196.13;5054334;28;20040;-80
2023/04/27 03:55:06;;;;;;;4.80;2.20;;;;;;;-0.87;nan;101205.63;5036847;28;20047;-79
2023/04/27 03:57:33;;;;;;;4.70;2.60;;;;;;;-0.85;nan;101203.94;5071821;28;20040;-79
2023/04/27 04:00:00;;;;;;;3.47;2.37;;;;;;;-0.85;nan;101203.06;5076955;28;20033;-79
2023/04/27 04:02:27;;;;;;;4.17;2.33;;;;;;;-0.87;nan;101205.63;5040403;28;20100;-80
2023/04/27 04:04:54;;;;;;;6.63;2.57;;;;;;;-0.81;nan;101207.56;5059209;28;20046;-79
2023/04/27 04:07:21;;;;;;;6.47;2.80;;;;;;;-0.84;nan;101212.66;5042004;28;20055;-80
2023/04/27 04:09:48;;;;;;;3.03;2.40;;;;;;;-0.82;nan;101216.16;5039239;28;20055;-79
2023/04/27 04:12:15;;;;;;;5.60;2.30;;;;;;;-0.83;nan;101211.81;5036400;28;20037;-80
2023/04/27 04:14:42;;;;;;;4.30;2.63;;;;;;;-0.83;nan;101218.72;5069346;28;20043;-79
2023/04/27 04:17:12;;;;;;;4.23;2.27;;;;;;;-0.80;nan;101227.47;5016872;28;20040;-79
2023/04/27 04:19:39;;;;;;;4.57;2.17;;;;;;;-0.84;nan;101217.84;5032044;28;20041;-80
2023/04/27 04:22:05;;;;;;;3.57;2.27;;;;;;;-0.83;nan;101229.09;5060907;28;20032;-80
2023/04/27 04:24:32;;;;;;;6.80;2.50;;;;;;;-0.78;nan;101228.41;5060458;28;20039;-79
2023/04/27 04:26:59;;;;;;;5.13;2.23;;;;;;;-0.71;nan;101226.91;5037393;28;20041;-79
2023/04/27 04:29:26;;;;;;;5.97;2.47;;;;;;;-0.72;nan;101223.44;5071104;28;20043;-80
2023/04/27 04:31:56;;;;;;;5.80;2.40;;;;;;;-0.68;nan;101219.22;5069538;28;20448;-80
2023/04/27 04:34:23;;;;;;;4.97;2.43;;;;;;;-0.67;nan;101231.38;5051985;28;20062;-80
2023/04/27 04:36:50;;;;;;;4.83;2.30;;;;;;;-0.67;nan;101232.25;5052907;28;20034;-78
2023/04/27 04:39:21;;;;;;;5.83;2.77;;;;;;;-0.62;nan;101230.69;5053156;28;20040;-79
2023/04/27 04:41:48;;;;;;;4.77;2.43;;;;;;;-0.41;nan;101225.34;5037159;28;20039;-80
2023/04/27 04:44:15;;;;;;;6.90;2.50;;;;;;;-0.36;nan;101233.28;5054911;28;20642;-80
2023/04/27 04:46:42;;;;;;;5.73;2.73;;;;;;;-0.39;nan;101231.47;5056458;28;20118;-80
2023/04/27 04:49:09;;;;;;;5.03;2.63;;;;;;;-0.37;nan;101237.56;5039052;28;20473;-79
2023/04/27 04:51:41;;;;;;;5.27;3.10;;;;;;;-0.34;nan;101235.09;5037220;28;20055;-79
2023/04/27 04:54:07;;;;;;;3.93;2.47;;;;;;;-0.31;nan;101235.19;5047132;28;20300;-78
2023/04/27 04:56:34;;;;;;;4.40;2.87;;;;;;;-0.25;nan;101234.53;5052955;28;20049;-77
2023/04/27 04:59:02;;;;;;;5.77;3.20;;;;;;;-0.21;nan;101235.50;5053489;28;20044;-78
2023/04/27 05:01:29;;;;;;;4.73;2.90;;;;;;;-0.14;nan;101237.44;5053717;28;20044;-78
2023/04/27 05:03:56;;;;;;;8.07;3.03;;;;;;;-0.08;nan;101237.66;5071100;28;20379;-80
2023/04/27 05:06:24;;;;;;;6.67;2.97;;;;;;;-0.06;nan;101239.47;5059469;28;20043;-80
2023/04/27 05:08:50;;;;;;;5.00;2.30;;;;;;;-0.06;nan;101233.38;5038100;28;20035;-78
2023/04/27 05:11:17;;;;;;;6.50;2.93;;;;;;;0.03;nan;101233.66;5055635;28;20505;-79
2023/04/27 05:13:45;;;;;;;7.00;3.17;;;;;;;0.17;nan;101244.47;5052409;28;20404;-80
2023/04/27 05:16:12;;;;;;;6.13;2.57;;;;;;;0.10;nan;101227.84;5061842;28;20370;-80
2023/04/27 05:18:39;;;;;;;9.90;3.53;;;;;;;0.23;nan;101237.75;5052218;28;20039;-79
2023/04/27 05:21:16;;;;;;;6.00;3.17;;;;;;;0.20;nan;101242.00;5035243;28;20032;-79
2023/04/27 05:23:42;;;;;;;4.93;2.90;;;;;;;0.52;nan;101241.25;5033395;28;20044;-80
2023/04/27 05:26:13;;;;;;;6.33;3.43;;;;;;;0.64;nan;101238.09;5034080;28;20036;-79
2023/04/27 05:28:40;;;;;;;5.83;3.63;;;;;;;0.97;nan;101243.38;5052628;28;20101;-78
2023/04/27 05:31:07;;;;;;;8.33;3.50;;;;;;;1.03;nan;101240.97;5042577;28;20048;-81
2023/04/27 05:33:35;;;;;;;7.03;3.20;;;;;;;1.24;nan;101239.75;5043552;28;20478;-79
2023/04/27 05:36:02;;;;;;;8.83;3.77;;;;;;;1.40;nan;101242.81;5043113;28;20036;-80
2023/04/27 05:38:29;;;;;;;6.07;3.10;;;;;;;1.54;nan;101248.38;5063652;28;20067;-80
2023/04/27 05:40:56;;;;;;;11.20;3.93;;;;;;;1.60;nan;101247.66;5033270;28;20041;-79
2023/04/27 05:43:24;;;;;;;5.83;2.90;;;;;;;1.72;nan;101249.69;5027710;28;20127;-80
2023/04/27 05:45:51;;;;;;;6.37;3.00;;;;;;;1.81;nan;101240.38;5050944;28;20054;-80
2023/04/27 05:48:19;;;;;;;8.53;3.60;;;;;;;2.18;nan;101244.72;5052743;28;20029;-79
2023/04/27 05:50:46;;;;;;;8.43;4.00;;;;;;;2.99;nan;101238.63;5052411;28;20047;-80
2023/04/27 05:53:12;;;;;;;5.67;2.77;;;;;;;4.34;nan;101248.72;5051441;28;20037;-79
2023/04/27 05:55:39;;;;;;;4.57;2.73;;;;;;;5.02;nan;101233.91;5065407;28;20036;-78
2023/04/27 05:58:06;;;;;;;4.23;2.70;;;;;;;5.28;nan;101239.41;5035619;28;20043;-79
2023/04/27 06:00:35;;;;;;;4.80;3.17;;;;;;;5.44;nan;101242.19;5071609;28;20029;-80
2023/04/27 06:03:02;;;;;;;4.37;2.53;;;;;;;5.48;nan;101234.41;5039400;28;20043;-79
2023/04/27 06:05:29;;;;;;;8.93;2.90;;;;;;;5.41;nan;101235.19;5051194;28;20408;-80
2023/04/27 06:07:56;;;;;;;7.30;3.03;;;;;;;5.49;nan;101240.53;5077534;28;20762;-79
2023/04/27 06:10:23;;;;;;;5.20;3.00;;;;;;;5.52;nan;101241.41;5084663;28;20486;-79
2023/04/27 06:12:50;;;;;;;4.87;2.93;;;;;;;5.71;nan;101244.19;5060771;28;20044;-79
2023/04/27 06:15:17;;;;;;;6.30;3.30;;;;;;;6.12;nan;101244.56;5068441;28;20043;-78
2023/04/27 06:17:44;;;;;;;5.33;2.50;;;;;;;7.65;nan;101230.28;5082272;28;20411;-78
2023/04/27 06:20:12;;;;;;;4.70;2.43;;;;;;;9.58;nan;101233.16;5053273;28;20516;-80
2023/04/27 06:22:39;;;;;;;3.10;2.00;;;;;;;11.35;nan;101225.09;5053277;28;20228;-78
2023/04/27 06:25:07;;;;;;;3.42;2.13;;;;;;;12.44;nan;101229.47;5082447;28;20040;-80
2023/04/27 06:27:34;;;;;;;4.97;2.55;;;;;;;12.71;nan;101228.97;5068236;28;20523;-78
2023/04/27 06:30:01;;;;;;;4.68;2.00;;;;;;;13.92;nan;101226.22;5037978;28;20036;-79
2023/04/27 06:32:28;;;;;;;3.50;1.88;;;;;;;14.83;nan;101228.22;5054302;28;20039;-79
2023/04/27 06:34:55;;;;;;;5.47;1.92;;;;;;;14.75;nan;101231.09;5064431;28;20032;-80
2023/04/27 06:37:22;;;;;;;4.32;2.00;;;;;;;14.96;nan;101226.94;5038502;28;20037;-80
2023/04/27 06:39:49;;;;;;;5.88;2.38;;;;;;;14.03;nan;101234.78;5063284;28;20032;-79
2023/04/27 06:42:16;;;;;;;3.30;1.77;;;;;;;14.11;nan;101238.13;5062859;28;20029;-80
2023/04/27 06:44:43;;;;;;;3.85;2.10;;;;;;;13.61;nan;101239.38;5055253;28;20029;-80
2023/04/27 06:47:10;;;;;;;6.53;2.00;;;;;;;13.26;nan;101246.38;5047256;28;20036;-79
2023/04/27 06:49:37;;;;;;;4.45;2.42;;;;;;;12.46;nan;101251.53;5072613;28;20043;-79
2023/04/27 06:52:04;;;;;;;4.60;2.20;;;;;;;12.56;nan;101240.72;5055322;28;20482;-78
2023/04/27 06:54:31;;;;;;;6.55;2.30;;;;;;;12.22;nan;101235.19;5054881;28;20050;-80
2023/04/27 06:56:58;;;;;;;4.07;2.10;;;;;;;11.88;nan;101242.84;5063239;28;20058;-80
2023/04/27 06:59:26;;;;;;;5.55;2.10;;;;;;;11.81;nan;101234.13;5055544;28;20379;-79
2023/04/27 07:01:53;;;;;;;4.28;2.28;;;;;;;11.73;nan;101249.22;5090466;28;20036;-79
2023/04/27 07:04:20;;;;;;;4.82;2.05;;;;;;;11.03;nan;101254.66;5029808;28;20051;-79
2023/04/27 07:06:47;;;;;;;3.90;2.58;;;;;;;10.85;nan;101245.19;5072826;28;20028;-80
2023/04/27 07:09:13;;;;;;;2.90;1.73;;;;;;;10.83;nan;101252.25;5043014;28;20815;-80
2023/04/27 07:11:52;;;;;;;3.22;1.90;;;;;;;10.07;nan;101241.56;5042778;28;20038;-79
2023/04/27 07:14:19;;;;;;;3.72;1.75;;;;;;;10.50;nan;101242.94;5040697;28;20045;-80
2023/04/27 07:16:46;;;;;;;2.80;1.77;;;;;;;10.83;nan;101239.91;5067678;28;20512;-79
2023/04/27 07:19:13;;;;;;;6.40;2.88;;;;;;;10.96;nan;101240.63;5052010;28;20411;-80
2023/04/27 07:21:40;;;;;;;4.20;1.98;;;;;;;10.81;nan;101248.75;5084397;28;20035;-78
2023/04/27 07:24:07;;;;;;;5.80;1.90;;;;;;;10.97;nan;101250.31;5053425;28;20515;-79
2023/04/27 07:26:35;;;;;;;3.15;2.13;;;;;;;11.24;nan;101247.28;5053533;28;20054;-79
2023/04/27 07:29:02;;;;;;;6.50;1.98;;;;;;;11.42;nan;101239.97;5057998;28;20350;-79
2023/04/27 07:31:37;;;;;;;3.63;2.13;;;;;;;11.44;nan;101244.38;5059508;28;20029;-79
2023/04/27 07:34:04;;;;;;;3.35;1.70;;;;;;;11.39;nan;101240.03;5053513;28;20034;-80
2023/04/27 07:36:31;;;;;;;4.55;1.73;;;;;;;11.45;nan;101247.91;5045732;28;20042;-80
2023/04/27 07:38:58;;;;;;;3.92;1.80;;;;;;;11.36;nan;101238.31;5020745;28;20048;-78
2023/04/27 07:41:26;;;;;;;2.47;1.70;;;;;;;11.73;nan;101243.06;5054064;28;20032;-79
2023/04/27 07:43:53;;;;;;;2.88;1.92;;;;;;;11.63;nan;101250.25;5051683;28;20063;-79
2023/04/27 07:46:20;;;;;;;3.00;1.98;;;;;;;11.66;nan;101251.97;5074928;28;20032;-80
2023/04/27 07:48:49;;;;;;;3.28;1.80;;;;;;;10.35;nan;101249.28;5057126;28;20397;-78
2023/04/27 07:51:16;;;;;;;4.40;2.33;;;;;;;10.57;nan;101253.41;5053659;28;20056;-79
2023/04/27 07:53:45;;;;;;;4.07;1.70;;;;;;;11.09;nan;101258.06;5051420;28;20036;-80
2023/04/27 07:56:13;;;;;;;3.50;1.20;;;;;;;11.18;nan;101252.69;5031383;28;20048;-79
2023/04/27 07:58:40;;;;;;;4.95;1.65;;;;;;;11.17;nan;101257.97;5054482;28;20035;-79
2023/04/27 08:01:07;;;;;;;3.60;1.88;;;;;;;11.37;nan;101261.25;5057863;28;20042;-79
2023/04/27 08:03:34;;;;;;;3.08;1.75;;;;;;;11.33;nan;101261.28;5053958;28;20037;-79
2023/04/27 08:06:03;;;;;;;3.78;2.10;;;;;;;11.54;nan;101258.34;5039455;28;20542;-78
2023/04/27 08:08:30;;;;;;;5.85;2.22;;;;;;;11.14;nan;101258.03;5051718;28;20032;-79
2023/04/27 08:10:57;;;;;;;5.57;1.95;;;;;;;11.32;nan;101267.47;5035781;28;20041;-80
2023/04/27 08:13:24;;;;;;;3.40;2.00;;;;;;;11.16;nan;101265.03;5052689;28;20037;-80
2023/04/27 08:15:57;;;;;;;3.60;1.85;;;;;;;10.77;nan;101268.19;5035554;28;20032;-81
2023/04/27 08:18:25;;;;;;;8.77;2.00;;;;;;;10.76;nan;101271.69;5077487;28;20028;-81
2023/04/27 08:20:52;;;;;;;5.57;1.70;;;;;;;10.95;nan;101266.19;5053358;28;20036;-80
2023/04/27 08:23:19;;;;;;;3.45;1.75;;;;;;;11.05;nan;101266.06;5023184;28;20036;-80
2023/04/27 08:25:47;;;;;;;3.72;1.85;;;;;;;11.21;nan;101257.94;5052869;28;20053;-79
2023/04/27 08:28:14;;;;;;;3.65;2.28;;;;;;;11.02;nan;101267.00;5057797;28;20032;-80
2023/04/27 08:30:41;;;;;;;6.25;1.75;;;;;;;10.65;nan;101267.41;5052807;28;20037;-79
2023/04/27 08:33:08;;;;;;;3.20;1.60;;;;;;;10.21;nan;101274.91;5053159;28;20521;-79
2023/04/27 08:35:35;;;;;;;6.40;1.50;;;;;;;10.11;nan;101268.81;5020350;28;20040;-80
2023/04/27 08:38:02;;;;;;;4.80;1.60;;;;;;;9.88;nan;101274.28;5036607;28;20066;-80
2023/04/27 08:40:29;;;;;;;5.70;2.22;;;;;;;9.62;nan;101276.25;5053620;28;20044;-80
2023/04/27 08:42:58;;;;;;;3.90;1.70;;;;;;;9.38;nan;101277.25;5036592;28;20051;-80
2023/04/27 08:45:26;;;;;;;3.47;1.50;;;;;;;9.00;nan;101276.59;5052297;28;20037;-80
2023/04/27 08:47:54;;;;;;;3.57;1.63;;;;;;;8.90;nan;101277.47;5054498;28;20037;-79
2023/04/27 08:50:22;;;;;;;5.13;1.60;;;;;;;9.55;nan;101270.13;5072816;28;20042;-79
2023/04/27 08:52:51;;;;;;;3.15;1.33;;;;;;;9.72;nan;101277.91;5046907;28;20481;-80
2023/04/27 08:55:18;;;;;;;2.57;1.60;;;;;;;9.34;nan;101278.19;5065537;28;20400;-79
2023/04/27 08:57:59;;;;;;;3.27;1.50;;;;;;;9.29;nan;101283.47;5052623;28;20028;-80
2023/04/27 09:00:26;;;;;;;2.27;1.40;;;;;;;9.46;nan;101280.72;5046368;28;20074;-80
2023/04/27 09:02:53;;;;;;;2.93;1.63;;;;;;;9.69;nan;101276.19;5058162;28;20048;-80
2023/04/27 09:05:22;;;;;;;2.70;1.47;;;;;;;9.57;nan;101274.50;5038377;28;20108;-81
2023/04/27 09:08:04;;;;;;;2.63;1.38;;;;;;;9.89;nan;101281.31;5035109;28;20144;-80
2023/04/27 09:10:46;;;;;;;2.07;1.17;;;;;;;10.07;nan;101275.00;5037927;28;20166;-80
2023/04/27 09:13:13;;;;;;;2.13;1.20;;;;;;;10.14;nan;101271.44;5043471;28;20400;-80
2023/04/27 09:15:44;;;;;;;3.65;1.60;;;;;;;10.20;nan;101274.03;5053836;28;20050;-81
2023/04/27 09:18:18;;;;;;;4.40;1.40;;;;;;;9.85;nan;101279.59;5065614;28;20054;-79
2023/04/27 09:20:49;;;;;;;3.17;1.40;;;;;;;9.66;nan;101277.97;5057462;28;20047;-79
2023/04/27 09:23:26;;;;;;;3.63;1.80;;;;;;;9.66;nan;101262.13;5053212;28;20047;-80
2023/04/27 09:25:55;;;;;;;4.53;1.40;;;;;;;9.55;nan;101264.84;5068928;28;20039;-80
2023/04/27 09:28:26;;;;;;;3.28;1.90;;;;;;;9.96;nan;101269.81;5041482;28;20042;-80
2023/04/27 09:30:54;;;;;;;3.92;1.83;;;;;;;10.26;nan;101263.44;5020539;28;20049;-80
2023/04/27 09:33:23;;;;;;;4.22;1.40;;;;;;;10.28;nan;101266.06;5039334;28;20041;-78
2023/04/27 09:35:50;;;;;;;3.22;1.30;;;;;;;9.76;nan;101263.84;5037646;28;20044;-81
2023/04/27 09:38:18;;;;;;;2.97;1.55;;;;;;;9.95;nan;101260.16;5037215;28;20041;-80
2023/04/27 09:40:46;;;;;;;2.05;1.30;;;;;;;10.19;nan;101258.19;5033313;28;20033;-80
2023/04/27 09:43:14;;;;;;;2.40;1.60;;;;;;;10.48;nan;101253.50;5048594;28;20608;-80
2023/04/27 09:45:41;;;;;;;13.30;2.95;;;;;;;10.31;nan;101248.41;5039759;28;20154;-80
2023/04/27 09:48:09;;;;;;;3.70;1.42;;;;;;;10.36;nan;101249.25;5056009;28;20054;-81
2023/04/27 09:50:39;;;;;;;2.58;1.40;;;;;;;10.52;nan;101254.38;5055649;28;20406;-80
2023/04/27 09:53:12;;;;;;;2.83;1.40;;;;;;;10.20;nan;101254.66;5053556;28;20424;-79
2023/04/27 09:55:58;;;;;;;3.38;1.65;;;;;;;10.76;nan;101237.34;5054608;28;20052;-79
2023/04/27 09:58:43;;;;;;;3.85;1.70;;;;;;;10.53;nan;101248.19;5058193;28;20036;-79
2023/04/27 10:01:26;;;;;;;4.05;1.27;;;;;;;10.79;nan;101240.84;5022572;28;20044;-79
2023/04/27 10:04:14;;;;;;;6.25;1.67;;;;;;;10.86;nan;101244.28;5045789;28;20459;-79
2023/04/27 10:06:51;;;;;;;2.40;1.30;;;;;;;10.83;nan;101241.66;5059849;28;20047;-79
2023/04/27 10:09:25;;;;;;;6.28;1.30;;;;;;;10.39;nan;101256.25;5061301;28;20042;-78
2023/04/27 10:11:53;;;;;;;2.55;1.20;;;;;;;10.19;nan;101253.78;5060850;28;20547;-79
2023/04/27 10:14:21;;;;;;;2.20;1.20;;;;;;;9.72;nan;101247.13;5068686;28;20511;-78
2023/04/27 10:16:56;;;;;;;2.58;1.20;;;;;;;9.51;nan;101244.66;5075720;28;20036;-79
2023/04/27 10:19:24;;;;;;;40.78;4.88;;;;;;;9.21;nan;101243.09;5059171;28;20638;-79
2023/04/27 10:21:52;;;;;;;2.13;1.42;;;;;;;9.52;nan;101238.50;5061570;28;20028;-79
2023/04/27 10:24:30;;;;;;;5.15;1.20;;;;;;;9.41;nan;101241.19;5060727;28;20032;-81
2023/04/27 10:27:04;;;;;;;3.97;1.77;;;;;;;9.46;nan;101242.03;5050113;28;20044;-80
2023/04/27 10:29:36;;;;;;;3.38;1.42;;;;;;;10.38;nan;101228.97;5059687;28;20036;-80
2023/04/27 10:32:11;;;;;;;2.20;1.30;;;;;;;10.85;nan;101219.63;5038831;28;20041;-80
2023/04/27 10:34:39;;;;;;;6.25;1.67;;;;;;;11.40;nan;101225.91;5039885;28;20066;-77
2023/04/27 10:37:10;;;;;;;3.85;1.30;;;;;;;11.57;nan;101230.06;5037938;28;20712;-79
2023/04/27 10:39:39;;;;;;;2.83;1.23;;;;;;;11.65;nan;101214.06;5056909;28;20041;-79
2023/04/27 10:42:26;;;;;;;4.57;1.40;;;;;;;11.78;nan;101220.03;5042623;28;20036;-78
2023/04/27 10:44:56;;;;;;;3.00;1.15;;;;;;;11.78;nan;101231.50;5064671;28;20032;-79
2023/04/27 10:47:23;;;;;;;2.72;1.25;;;;;;;11.54;nan;101231.88;5035955;28;20041;-79
2023/04/27 10:49:53;;;;;;;3.95;1.30;;;;;;;11.20;nan;101235.03;5036873;28;20037;-79
2023/04/27 10:52:20;;;;;;;3.33;1.67;;;;;;;10.83;nan;101233.75;5060800;28;20481;-78
2023/04/27 10:54:47;;;;;;;3.30;1.30;;;;;;;10.87;nan;101238.97;5051258;28;20037;-80
2023/04/27 10:57:13;;;;;;;9.20;2.22;;;;;;;10.76;nan;101238.22;5071743;28;20535;-79
2023/04/27 10:59:49;;;;;;;3.22;1.20;;;;;;;10.76;nan;101243.50;5063343;28;20032;-79
2023/04/27 11:02:16;;;;;;;2.25;1.33;;;;;;;11.19;nan;101243.84;5070579;28;20131;-79
2023/04/27 11:04:45;;;;;;;2.85;1.40;;;;;;;11.77;nan;101223.56;5052511;28;20493;-79
2023/04/27 11:07:22;;;;;;;2.58;1.38;;;;;;;12.46;nan;101231.22;5065133;28;20038;-81
2023/04/27 11:09:49;;;;;;;7.28;1.70;;;;;;;12.61;nan;101230.00;5048766;28;20029;-79
2023/04/27 11:12:17;;;;;;;2.03;1.48;;;;;;;12.45;nan;101228.59;5063615;28;20489;-78
2023/04/27 11:14:44;;;;;;;3.30;1.58;;;;;;;12.15;nan;101244.13;5054806;28;20043;-80
2023/04/27 11:17:12;;;;;;;4.07;2.58;;;;;;;12.39;nan;101232.22;5031689;28;20037;-79
2023/04/27 11:19:46;;;;;;;3.28;2.13;;;;;;;12.50;nan;101226.72;5060833;28;20043;-79
2023/04/27 11:22:15;;;;;;;4.90;2.00;;;;;;;12.76;nan;101235.03;5062242;28;20501;-81
2023/04/27 11:24:49;;;;;;;4.28;2.88;;;;;;;12.67;nan;101227.25;5056503;28;20523;-80
2023/04/27 11:27:16;;;;;;;3.90;1.95;;;;;;;12.58;nan;101233.63;5048297;28;20037;-79
2023/04/27 11:29:43;;;;;;;2.40;1.20;;;;;;;12.28;nan;101240.38;5036950;28;20071;-79
2023/04/27 11:32:24;;;;;;;3.03;1.95;;;;;;;12.15;nan;101244.13;5068579;28;20042;-80
2023/04/27 11:34:52;;;;;;;3.72;2.28;;;;;;;11.87;nan;101233.16;5077281;28;20040;-79
2023/04/27 11:37:25;;;;;;;2.10;1.73;;;;;;;11.63;nan;101241.44;5058671;28;20028;-80
2023/04/27 11:39:53;;;;;;;2.53;1.20;;;;;;;11.49;nan;101250.47;5031107;28;20032;-79
2023/04/27 11:42:24;;;;;;;6.97;1.70;;;;;;;11.19;nan;101251.78;5035490;28;20647;-79
2023/04/27 11:45:04;;;;;;;3.15;1.60;;;;;;;11.18;nan;101257.97;5057830;28;20131;-80
2023/04/27 11:47:33;;;;;;;2.50;1.52;;;;;;;11.53;nan;101261.91;5075014;28;20128;-82
2023/04/27 11:50:04;;;;;;;3.42;1.45;;;;;;;11.85;nan;101253.47;5035375;28;20040;-79